Time;durP1;ratioP1;P1;durP2;ratioP2;P2;SDS_P1;SDS_P2;PMS_P1;PMS_P2;Temp;Humidity;BMP_temperature;BMP_pressure;BME280_temperature;BME280_humidity;BME280_pressure;Samples;Min_cycle;Max_cycle;Signal;HPM_P1;HPM_P2
2022/11/20 00:01:48;;;;;;;20.67;9.18;;;;;;;-2.13;82.90;101248.78;5048548;28;20049;-91
2022/11/20 00:04:19;;;;;;;18.27;7.93;;;;;;;-2.12;82.74;101242.88;5054347;28;20105;-93
2022/11/20 00:07:34;;;;;;;19.38;8.40;;;;;;;-2.05;82.85;101244.03;5054314;28;20052;-91
2022/11/20 00:09:59;;;;;;;19.73;8.45;;;;;;;-2.06;82.99;101247.38;5035808;28;20038;-92
2022/11/20 00:12:25;;;;;;;21.77;10.70;;;;;;;-2.18;82.87;101240.09;5034977;28;20037;-92
2022/11/20 00:14:50;;;;;;;22.20;10.55;;;;;;;-2.27;82.94;101238.00;5035615;28;20108;-92
2022/11/20 00:17:30;;;;;;;22.33;10.77;;;;;;;-2.28;82.89;101245.59;5035075;28;20025;-92
2022/11/20 00:20:01;;;;;;;21.88;10.07;;;;;;;-2.26;83.36;101238.91;5035341;28;20060;-92
2022/11/20 00:22:26;;;;;;;18.25;8.65;;;;;;;-2.20;83.37;101240.03;5036352;28;20065;-92
2022/11/20 00:24:51;;;;;;;18.33;8.20;;;;;;;-2.17;83.20;101239.28;5035300;28;20501;-92
2022/11/20 00:27:35;;;;;;;18.02;7.68;;;;;;;-2.10;83.53;101250.59;5034515;28;20026;-92
2022/11/20 00:30:05;;;;;;;16.42;6.90;;;;;;;-2.05;83.43;101254.19;5034807;28;20032;-92
2022/11/20 00:32:36;;;;;;;16.70;6.68;;;;;;;-2.02;83.28;101245.00;5056983;22;20136;-92
2022/11/20 00:35:05;;;;;;;14.45;6.18;;;;;;;-1.97;83.71;101241.81;5054600;28;20548;-92
2022/11/20 00:37:36;;;;;;;14.90;6.30;;;;;;;-1.92;83.33;101247.97;5054337;28;20025;-92
2022/11/20 00:40:05;;;;;;;14.88;5.90;;;;;;;-1.95;83.46;101242.75;5054352;28;20123;-93
2022/11/20 00:42:32;;;;;;;13.48;5.93;;;;;;;-1.94;83.79;101240.25;5054445;28;20087;-92
2022/11/20 00:44:57;;;;;;;14.30;5.93;;;;;;;-1.92;83.44;101245.44;5054679;28;20082;-93
2022/11/20 00:47:24;;;;;;;13.15;5.53;;;;;;;-1.97;84.07;101237.56;5054027;28;20112;-92
2022/11/20 00:49:52;;;;;;;14.52;5.93;;;;;;;-2.05;83.42;101237.28;5054618;28;20109;-92
2022/11/20 00:52:24;;;;;;;14.18;5.80;;;;;;;-2.03;83.68;101237.31;5054344;28;20035;-92
2022/11/20 00:54:49;;;;;;;14.15;5.88;;;;;;;-2.04;84.17;101236.47;5054167;28;20557;-92
2022/11/20 00:57:14;;;;;;;12.75;5.40;;;;;;;-2.00;84.24;101240.00;5054115;28;20057;-92
2022/11/20 00:59:49;;;;;;;13.02;5.53;;;;;;;-2.03;84.25;101239.88;5053554;28;20112;-92
2022/11/20 01:02:20;;;;;;;13.90;5.90;;;;;;;-2.03;84.02;101235.63;5053969;28;20119;-92
2022/11/20 01:04:45;;;;;;;13.77;5.38;;;;;;;-2.05;84.07;101229.66;5054056;28;20029;-91
2022/11/20 01:07:11;;;;;;;12.60;5.60;;;;;;;-2.02;84.32;101239.06;5074718;22;20123;-91
2022/11/20 01:09:36;;;;;;;13.15;5.53;;;;;;;-2.02;84.37;101239.94;5075967;28;20025;-91
2022/11/20 01:12:01;;;;;;;13.65;5.90;;;;;;;-2.00;84.02;101239.13;5080349;28;20039;-90
2022/11/20 01:14:27;;;;;;;13.10;5.50;;;;;;;-2.02;84.17;101242.47;5077897;28;20396;-91
2022/11/20 01:16:52;;;;;;;12.23;4.95;;;;;;;-2.07;84.75;101235.44;5067267;28;20032;-91
2022/11/20 01:19:22;;;;;;;11.48;4.75;;;;;;;-2.07;84.53;101238.00;5124044;22;20060;-91
2022/11/20 01:21:52;;;;;;;10.93;4.72;;;;;;;-2.06;84.64;101242.28;5077450;22;20497;-91
2022/11/20 01:24:20;;;;;;;11.30;5.10;;;;;;;-2.05;85.13;101238.94;5073734;28;20111;-91
2022/11/20 01:29:22;;;;;;;10.70;4.93;;;;;;;-2.03;84.50;101237.31;5023447;22;20052;-90
2022/11/20 01:31:48;;;;;;;10.30;4.45;;;;;;;-2.06;85.07;101233.00;5041135;22;20505;-91
2022/11/20 01:34:17;;;;;;;12.10;4.88;;;;;;;-2.06;84.98;101237.19;5033855;28;20022;-90
2022/11/20 01:36:43;;;;;;;12.27;5.10;;;;;;;-2.06;84.81;101233.00;5054812;22;20045;-90
2022/11/20 01:39:14;;;;;;;12.77;5.03;;;;;;;-2.09;84.87;101229.47;5073626;28;20028;-90
2022/11/20 01:44:52;;;;;;;11.05;5.03;;;;;;;-2.16;84.90;101223.22;5068167;28;20558;-90
2022/11/20 01:47:25;;;;;;;11.95;4.95;;;;;;;-2.17;85.29;101231.66;5073538;28;20392;-90
2022/11/20 01:50:05;;;;;;;11.40;4.82;;;;;;;-2.17;85.22;101235.06;5073463;28;20032;-90
2022/11/20 01:52:51;;;;;;;11.52;5.30;;;;;;;-2.16;85.45;101235.94;5074422;28;20028;-90
2022/11/20 02:01:38;;;;;;;12.07;5.20;;;;;;;-2.20;85.48;101236.59;4968651;28;20511;-90
2022/11/20 02:04:08;;;;;;;11.48;5.00;;;;;;;-2.21;84.96;101239.94;4972590;28;20034;-89
2022/11/20 02:06:40;;;;;;;11.23;4.78;;;;;;;-2.23;85.27;101233.91;5055744;28;20037;-89
2022/11/20 02:09:15;;;;;;;12.25;5.00;;;;;;;-2.25;85.58;101230.47;5073736;28;20028;-90
2022/11/20 02:11:51;;;;;;;12.60;5.30;;;;;;;-2.29;85.56;101223.50;5075260;28;20036;-89
2022/11/20 02:14:26;;;;;;;10.23;4.67;;;;;;;-2.31;85.67;101215.81;5077344;28;20052;-89
2022/11/20 02:17:04;;;;;;;11.23;4.65;;;;;;;-2.35;85.63;101222.41;5077167;28;20048;-89
2022/11/20 02:19:44;;;;;;;13.27;5.32;;;;;;;-2.34;85.75;101220.75;5077576;28;20082;-89
2022/11/20 02:22:34;;;;;;;11.02;4.80;;;;;;;-2.35;85.41;101224.09;5077077;28;20031;-88
2022/11/20 02:25:15;;;;;;;11.98;5.00;;;;;;;-2.37;85.54;101220.63;5077011;28;20045;-89
2022/11/20 02:27:49;;;;;;;13.77;5.47;;;;;;;-2.41;85.84;101211.09;5077213;28;20016;-89
2022/11/20 02:30:20;;;;;;;13.02;5.35;;;;;;;-2.42;85.89;101209.41;5077074;28;20028;-89
2022/11/20 02:32:55;;;;;;;12.38;5.20;;;;;;;-2.41;85.58;101216.19;5075965;28;20473;-89
2022/11/20 02:35:26;;;;;;;11.13;4.82;;;;;;;-2.39;85.76;101219.69;5076474;28;20029;-89
2022/11/20 02:38:04;;;;;;;12.00;4.90;;;;;;;-2.42;85.85;101211.94;5075978;28;20040;-89
2022/11/20 02:40:51;;;;;;;12.90;5.03;;;;;;;-2.37;85.95;101211.34;5076915;28;20020;-88
2022/11/20 02:43:34;;;;;;;11.93;5.35;;;;;;;-2.37;85.86;101211.34;5076678;28;20021;-89
2022/11/20 02:46:12;;;;;;;12.18;5.05;;;;;;;-2.38;86.10;101201.97;5075865;28;20094;-89
2022/11/20 02:48:43;;;;;;;11.25;4.85;;;;;;;-2.42;85.88;101206.84;5076633;28;20111;-89
2022/11/20 02:51:15;;;;;;;11.65;4.70;;;;;;;-2.45;86.38;101205.03;5076413;28;20035;-89
2022/11/20 02:53:55;;;;;;;9.32;4.38;;;;;;;-2.47;86.96;101209.16;5076410;28;20033;-89
2022/11/20 02:56:24;;;;;;;14.85;5.50;;;;;;;-2.51;86.45;101202.22;5073259;28;20040;-89
2022/11/20 02:58:58;;;;;;;13.00;5.60;;;;;;;-2.49;86.74;101208.25;5076110;28;20473;-89
2022/11/20 03:01:27;;;;;;;12.23;5.05;;;;;;;-2.44;86.53;101209.31;5076206;28;20024;-89
2022/11/20 03:04:04;;;;;;;12.57;5.10;;;;;;;-2.37;86.76;101203.72;5076104;28;20469;-89
2022/11/20 03:06:45;;;;;;;12.82;5.20;;;;;;;-2.35;86.71;101204.63;5075980;28;20036;-89
2022/11/20 03:09:20;;;;;;;11.07;4.80;;;;;;;-2.34;86.61;101198.72;5076027;28;20025;-89
2022/11/20 03:11:57;;;;;;;11.60;4.90;;;;;;;-2.31;86.77;101197.13;5076370;28;20016;-89
2022/11/20 03:14:25;;;;;;;12.07;5.10;;;;;;;-2.29;86.83;101200.63;5075365;28;20024;-88
2022/11/20 03:16:55;;;;;;;11.40;4.93;;;;;;;-2.27;86.84;101204.97;5075965;28;20016;-89
2022/11/20 03:19:26;;;;;;;11.63;4.90;;;;;;;-2.33;86.54;101197.94;5076014;28;20082;-89
2022/11/20 03:21:58;;;;;;;11.65;4.75;;;;;;;-2.30;86.53;101214.13;5076115;28;20039;-89
2022/11/20 03:24:32;;;;;;;9.85;4.20;;;;;;;-2.33;86.63;101208.09;5074397;28;20048;-88
2022/11/20 03:27:09;;;;;;;10.32;4.45;;;;;;;-2.33;86.46;101205.56;5075050;28;20024;-89
2022/11/20 03:29:43;;;;;;;10.55;4.35;;;;;;;-2.35;86.66;101191.06;5075769;28;20103;-89
2022/11/20 03:32:15;;;;;;;10.57;4.35;;;;;;;-2.33;87.07;101194.53;5075654;28;20032;-88
2022/11/20 03:34:55;;;;;;;11.63;4.70;;;;;;;-2.34;87.02;101191.09;5075557;28;20485;-88
2022/11/20 03:37:27;;;;;;;10.13;4.40;;;;;;;-2.34;86.95;101192.78;5075195;28;20032;-89
2022/11/20 03:40:02;;;;;;;10.63;4.68;;;;;;;-2.31;86.90;101192.06;5075242;28;20032;-88
2022/11/20 03:42:45;;;;;;;9.60;4.25;;;;;;;-2.34;86.78;101178.41;5075393;28;20056;-88
2022/11/20 03:45:14;;;;;;;10.65;4.70;;;;;;;-2.35;87.08;101176.66;5075545;28;20025;-88
2022/11/20 03:47:40;;;;;;;10.05;4.63;;;;;;;-2.36;87.24;101172.38;5075674;28;20469;-89
2022/11/20 03:50:14;;;;;;;10.68;4.75;;;;;;;-2.34;87.02;101165.69;5075108;28;20073;-88
2022/11/20 03:52:43;;;;;;;10.05;4.70;;;;;;;-2.38;86.98;101163.84;5074909;28;20025;-88
2022/11/20 03:55:14;;;;;;;10.68;4.97;;;;;;;-2.44;87.32;101155.94;5074746;28;20056;-89
2022/11/20 03:57:45;;;;;;;11.60;5.15;;;;;;;-2.47;87.08;101165.97;5080443;23;20070;-88
2022/11/20 04:00:14;;;;;;;12.35;5.03;;;;;;;-2.42;87.61;101158.56;5057423;28;20047;-88
2022/11/20 04:02:46;;;;;;;13.88;5.82;;;;;;;-2.47;88.36;101160.03;5055848;28;20025;-89
2022/11/20 04:05:20;;;;;;;18.48;8.25;;;;;;;-2.60;88.29;101153.56;5054743;28;20029;-89
2022/11/20 04:07:51;;;;;;;18.23;7.75;;;;;;;-2.61;88.19;101155.19;5055043;28;20024;-89
2022/11/20 04:10:16;;;;;;;16.10;6.90;;;;;;;-2.55;87.57;101149.53;5054563;28;20064;-89
2022/11/20 04:13:01;;;;;;;15.48;6.40;;;;;;;-2.49;88.10;101153.19;5055084;28;20048;-89
2022/11/20 04:15:35;;;;;;;16.83;6.85;;;;;;;-2.42;87.93;101156.03;5054634;28;20025;-89
2022/11/20 04:18:04;;;;;;;15.55;6.63;;;;;;;-2.37;87.55;101159.59;5055177;28;20017;-89
2022/11/20 04:20:36;;;;;;;14.35;6.28;;;;;;;-2.33;88.02;101148.78;5055090;28;20045;-89
2022/11/20 04:23:07;;;;;;;14.13;5.95;;;;;;;-2.29;87.99;101152.31;5054834;28;20032;-89
2022/11/20 04:25:41;;;;;;;14.93;5.97;;;;;;;-2.26;87.89;101160.94;5054606;28;20060;-89
2022/11/20 04:28:10;;;;;;;11.45;5.20;;;;;;;-2.26;87.49;101160.94;5054001;28;20033;-89
2022/11/20 04:30:47;;;;;;;11.65;5.25;;;;;;;-2.22;87.75;101151.75;5054784;28;20104;-89
2022/11/20 04:33:31;;;;;;;13.75;5.07;;;;;;;-2.25;87.94;101138.94;5054390;28;20079;-88
2022/11/20 04:36:26;;;;;;;12.40;5.20;;;;;;;-2.26;87.56;101143.13;5054229;28;20135;-89
2022/11/20 04:39:04;;;;;;;12.07;5.15;;;;;;;-2.25;87.87;101147.41;5036486;28;20138;-89
2022/11/20 04:42:28;;;;;;;11.85;5.07;;;;;;;-2.28;87.71;101149.81;5053831;28;20063;-88
2022/11/20 04:44:49;;;;;;;12.25;4.82;;;;;;;-2.29;88.20;101155.72;5051781;28;20032;-88
2022/11/20 04:47:29;;;;;;;11.75;4.88;;;;;;;-2.29;87.74;101148.06;5053783;28;20083;-88
2022/11/20 04:49:55;;;;;;;13.32;5.32;;;;;;;-2.26;87.91;101153.31;5054528;28;20054;-88
2022/11/20 04:52:20;;;;;;;11.18;4.80;;;;;;;-2.28;87.88;101143.88;5054070;28;20021;-88
2022/11/20 04:54:53;;;;;;;12.95;5.55;;;;;;;-2.29;87.71;101148.06;5064882;28;20098;-89
2022/11/20 04:57:24;;;;;;;11.77;4.93;;;;;;;-2.34;88.14;101139.41;5059691;28;20151;-89
2022/11/20 04:59:56;;;;;;;12.38;5.00;;;;;;;-2.35;87.83;101130.91;5054521;28;20036;-88
2022/11/20 05:02:21;;;;;;;10.90;4.70;;;;;;;-2.36;88.24;101126.63;5054079;28;20155;-89
2022/11/20 05:04:52;;;;;;;11.60;4.75;;;;;;;-2.36;87.85;101129.16;5054018;28;20112;-88
2022/11/20 05:07:23;;;;;;;12.95;5.03;;;;;;;-2.36;88.30;101131.69;5053200;28;20062;-88
2022/11/20 05:10:01;;;;;;;11.60;5.07;;;;;;;-2.35;88.05;101127.50;5054377;28;20377;-88
2022/11/20 05:12:32;;;;;;;10.32;4.78;;;;;;;-2.36;88.71;101126.63;5054510;28;20029;-88
2022/11/20 05:15:04;;;;;;;11.45;4.95;;;;;;;-2.35;87.94;101122.41;5053420;28;20550;-87
2022/11/20 05:17:35;;;;;;;9.95;4.50;;;;;;;-2.37;88.08;101118.94;5052883;28;20040;-88
2022/11/20 05:20:07;;;;;;;12.35;5.18;;;;;;;-2.33;88.22;101119.13;5053530;28;20024;-88
2022/11/20 05:22:36;;;;;;;12.55;5.45;;;;;;;-2.28;88.47;101118.47;5052460;28;20063;-88
2022/11/20 05:25:01;;;;;;;11.70;5.20;;;;;;;-2.26;88.25;101114.31;5053081;28;20052;-88
2022/11/20 05:27:32;;;;;;;11.07;4.85;;;;;;;-2.24;88.71;101110.13;5053297;28;20021;-88
2022/11/20 05:30:05;;;;;;;9.50;4.50;;;;;;;-2.25;88.42;101110.97;5053357;28;20524;-88
2022/11/20 05:32:33;;;;;;;11.50;4.95;;;;;;;-2.27;88.68;101108.34;5053424;28;20018;-88
2022/11/20 05:35:05;;;;;;;11.98;5.00;;;;;;;-2.27;88.50;101102.41;5053125;28;20032;-88
2022/11/20 05:37:39;;;;;;;11.15;4.70;;;;;;;-2.24;88.45;101105.03;5053314;28;20036;-88
2022/11/20 05:40:11;;;;;;;11.75;4.90;;;;;;;-2.24;88.51;101108.47;5053230;28;20028;-88
2022/11/20 05:42:40;;;;;;;10.73;4.80;;;;;;;-2.22;88.77;101105.97;5052798;28;20025;-88
2022/11/20 05:45:17;;;;;;;10.32;4.10;;;;;;;-2.21;88.64;101108.59;5052786;28;20032;-88
2022/11/20 05:48:04;;;;;;;11.68;4.68;;;;;;;-2.14;88.86;101121.56;5056235;28;20250;-88
2022/11/20 05:50:35;;;;;;;11.57;5.10;;;;;;;-2.13;88.63;101118.22;5057915;28;20033;-88
2022/11/20 05:53:16;;;;;;;11.45;4.80;;;;;;;-2.13;88.53;101113.97;5057177;28;20036;-88
2022/11/20 05:58:54;;;;;;;9.75;4.40;;;;;;;-2.08;88.58;101134.50;5057199;28;20052;-89
2022/11/20 06:01:26;;;;;;;10.85;5.00;;;;;;;-2.06;88.78;101131.25;5056659;28;20048;-88
2022/11/20 06:03:57;;;;;;;10.70;4.57;;;;;;;-2.08;89.00;101140.50;5056985;28;20032;-89
2022/11/20 06:06:29;;;;;;;11.35;4.60;;;;;;;-2.06;88.97;101143.97;5056995;28;20033;-88
2022/11/20 06:09:12;;;;;;;12.43;5.53;;;;;;;-2.06;88.94;101143.97;5056952;28;20027;-89
2022/11/20 06:11:43;;;;;;;12.68;5.20;;;;;;;-2.07;89.07;101142.22;5057560;28;20021;-88
2022/11/20 06:14:12;;;;;;;12.70;5.40;;;;;;;-2.06;88.80;101135.44;5057021;28;20056;-88
2022/11/20 06:16:43;;;;;;;11.40;5.07;;;;;;;-2.05;89.23;101137.19;5057227;28;20032;-89
2022/11/20 06:19:15;;;;;;;17.75;7.50;;;;;;;-2.13;89.69;101136.00;5057617;28;20116;-89
2022/11/20 06:21:48;;;;;;;19.15;7.95;;;;;;;-2.23;89.94;101137.31;5057038;28;20025;-89
2022/11/20 06:24:13;;;;;;;17.95;7.55;;;;;;;-2.25;89.60;101142.34;5057031;28;20589;-88
2022/11/20 06:26:39;;;;;;;16.30;7.20;;;;;;;-2.19;89.66;101139.19;5056639;28;20107;-88
2022/11/20 06:29:04;;;;;;;15.18;6.95;;;;;;;-2.18;89.54;101136.69;5056989;28;20029;-88
2022/11/20 06:31:45;;;;;;;14.93;6.25;;;;;;;-2.14;89.23;101137.72;5057170;28;20104;-88
2022/11/20 06:34:13;;;;;;;13.93;6.10;;;;;;;-2.08;89.42;101153.19;5056600;28;20035;-89
2022/11/20 06:36:44;;;;;;;14.00;6.25;;;;;;;-2.02;89.80;101150.91;5056857;28;20033;-88
2022/11/20 06:39:15;;;;;;;12.88;5.35;;;;;;;-2.00;89.35;101137.38;5056464;28;20028;-88
2022/11/20 06:41:40;;;;;;;13.20;5.72;;;;;;;-1.95;89.38;101131.66;5056964;28;20386;-89
2022/11/20 06:44:06;;;;;;;14.05;5.80;;;;;;;-1.94;89.16;101135.97;5056622;28;20028;-89
2022/11/20 06:46:31;;;;;;;15.13;6.40;;;;;;;-1.96;89.49;101129.94;5058263;28;20135;-89
2022/11/20 06:49:06;;;;;;;14.70;6.13;;;;;;;-1.92;89.32;101129.25;5059851;28;20025;-89
2022/11/20 06:51:34;;;;;;;15.27;6.80;;;;;;;-1.93;89.88;101121.56;5058300;28;20035;-89
2022/11/20 06:54:00;;;;;;;16.55;6.80;;;;;;;-1.88;89.70;101125.16;5057008;28;20024;-89
2022/11/20 06:56:35;;;;;;;15.25;5.97;;;;;;;-1.87;89.67;101116.72;5056192;28;20029;-88
2022/11/20 06:59:07;;;;;;;15.45;6.07;;;;;;;-1.83;89.60;101110.06;5055575;28;20107;-89
2022/11/20 07:01:32;;;;;;;15.85;6.60;;;;;;;-1.82;89.30;101109.28;5056498;28;20029;-89
2022/11/20 07:03:57;;;;;;;15.13;6.35;;;;;;;-1.80;89.33;101112.75;5060027;28;20021;-88
2022/11/20 07:06:40;;;;;;;15.50;6.82;;;;;;;-1.77;89.33;101113.72;5064247;28;20017;-85
2022/11/20 07:09:26;;;;;;;15.65;6.40;;;;;;;-1.76;89.59;101120.56;5055984;28;20385;-87
2022/11/20 07:12:10;;;;;;;14.40;6.07;;;;;;;-1.76;89.40;101120.56;5057754;28;20470;-86
2022/11/20 07:14:38;;;;;;;14.88;6.30;;;;;;;-1.70;89.16;101125.03;5055779;28;20028;-87
2022/11/20 07:17:10;;;;;;;14.43;5.80;;;;;;;-1.71;89.57;101116.53;5055602;28;20104;-87
2022/11/20 07:19:38;;;;;;;14.73;6.15;;;;;;;-1.71;89.30;101113.09;5055097;28;20025;-85
2022/11/20 07:22:13;;;;;;;13.25;5.63;;;;;;;-1.67;89.50;101119.19;5058517;28;20025;-89
2022/11/20 07:24:41;;;;;;;13.35;5.88;;;;;;;-1.64;89.51;101119.31;5065331;28;20079;-90
2022/11/20 07:27:15;;;;;;;13.32;5.47;;;;;;;-1.61;89.41;101111.78;5065854;28;20028;-89
2022/11/20 07:29:41;;;;;;;13.95;6.13;;;;;;;-1.57;89.60;101100.91;5061187;23;20090;-89
2022/11/20 07:32:14;;;;;;;14.13;5.88;;;;;;;-1.52;89.29;101106.19;5055347;28;20028;-90
2022/11/20 07:34:42;;;;;;;15.30;6.13;;;;;;;-1.49;89.34;101098.66;5058966;22;20041;-88
2022/11/20 07:37:16;;;;;;;12.93;5.80;;;;;;;-1.42;89.62;101105.75;5035414;28;20057;-90
2022/11/20 07:39:45;;;;;;;15.32;5.85;;;;;;;-1.40;89.21;101096.47;5033062;28;20163;-90
2022/11/20 07:42:13;;;;;;;14.23;6.10;;;;;;;-1.36;89.25;101097.47;5054257;28;20103;-89
2022/11/20 07:44:54;;;;;;;14.80;6.13;;;;;;;-1.37;89.30;101103.38;5055490;28;20054;-88
2022/11/20 07:47:25;;;;;;;13.80;6.03;;;;;;;-1.35;90.20;101101.75;5055348;28;20480;-90
2022/11/20 07:50:14;;;;;;;17.50;7.10;;;;;;;-1.37;89.55;101098.28;5062184;28;20151;-90
2022/11/20 07:53:02;;;;;;;16.08;6.70;;;;;;;-1.36;89.33;101107.66;5055435;28;20052;-90
2022/11/20 07:55:36;;;;;;;15.45;6.47;;;;;;;-1.32;89.95;101107.81;5054912;28;20079;-86
2022/11/20 07:58:14;;;;;;;15.18;5.85;;;;;;;-1.31;89.81;101099.38;5118991;22;20048;-88
2022/11/20 08:00:46;;;;;;;13.73;5.93;;;;;;;-1.27;90.16;101105.44;5074568;28;20079;-86
2022/11/20 08:03:29;;;;;;;15.13;6.50;;;;;;;-1.22;89.19;101101.38;5072889;28;20021;-85
2022/11/20 08:06:01;;;;;;;15.93;6.85;;;;;;;-1.17;89.42;101107.53;5072095;28;20028;-84
2022/11/20 08:08:30;;;;;;;14.55;6.47;;;;;;;-1.11;89.28;101115.38;5071756;28;20024;-85
2022/11/20 08:16:48;;;;;;;15.63;6.38;;;;;;;-0.99;90.11;101112.41;5074174;28;20391;-88
2022/11/20 08:19:34;;;;;;;15.45;6.20;;;;;;;-0.96;89.49;101111.66;5074220;28;20025;-88
2022/11/20 08:22:50;;;;;;;16.00;6.70;;;;;;;-0.94;90.28;101104.94;5081387;22;20052;-88
2022/11/20 08:25:42;;;;;;;16.33;6.90;;;;;;;-0.91;89.66;101099.97;5074243;28;20849;-88
2022/11/20 08:28:25;;;;;;;15.95;6.57;;;;;;;-0.87;89.73;101098.38;5074166;28;20473;-87
2022/11/20 08:30:51;;;;;;;16.00;6.78;;;;;;;-0.85;89.90;101095.06;5073691;28;20029;-87
2022/11/20 08:33:17;;;;;;;13.57;6.13;;;;;;;-0.83;89.53;101092.56;5074525;28;20107;-88
2022/11/20 08:35:45;;;;;;;12.57;6.00;;;;;;;-0.79;90.12;101095.28;5074567;28;20025;-87
2022/11/20 08:38:16;;;;;;;14.30;5.72;;;;;;;-0.74;90.23;101100.56;5074134;28;20326;-88
2022/11/20 08:41:23;;;;;;;12.13;5.18;;;;;;;-0.70;89.82;101099.84;5074688;28;20039;-87
2022/11/20 08:43:55;;;;;;;12.85;5.35;;;;;;;-0.57;90.12;101110.47;5071735;28;20056;-87
2022/11/20 08:46:41;;;;;;;10.95;5.00;;;;;;;-0.52;90.47;101107.25;5069348;28;20119;-88
2022/11/20 08:49:25;;;;;;;10.60;5.13;;;;;;;-0.44;90.45;101099.88;5063753;28;20353;-87
2022/11/20 08:52:03;;;;;;;11.30;5.00;;;;;;;-0.37;90.66;101104.34;5063739;28;20056;-88
2022/11/20 08:54:40;;;;;;;14.70;6.00;;;;;;;-0.32;90.98;101096.84;5068689;28;20024;-89
2022/11/20 08:57:06;;;;;;;14.63;5.95;;;;;;;-0.30;90.96;101095.22;5072871;28;20024;-89
2022/11/20 08:59:34;;;;;;;13.82;5.97;;;;;;;-0.26;90.48;101084.31;5073219;28;20074;-89
2022/11/20 09:02:05;;;;;;;13.35;5.60;;;;;;;-0.19;89.99;101087.94;5074118;28;20024;-89
2022/11/20 09:04:37;;;;;;;12.60;5.32;;;;;;;-0.13;90.31;101079.63;5070537;28;20095;-90
2022/11/20 09:07:03;;;;;;;11.98;5.30;;;;;;;-0.03;90.14;101079.09;5073091;28;20108;-89
2022/11/20 09:09:31;;;;;;;10.82;4.90;;;;;;;0.00;90.07;101079.22;5071518;28;20103;-90
2022/11/20 09:11:56;;;;;;;13.25;5.75;;;;;;;0.08;90.42;101087.97;5074073;28;20065;-89
2022/11/20 09:14:34;;;;;;;12.93;5.50;;;;;;;0.13;90.19;101086.41;5060180;28;20819;-89
2022/11/20 09:17:00;;;;;;;13.52;5.50;;;;;;;0.22;89.84;101087.53;5054235;28;20052;-90
2022/11/20 09:19:53;;;;;;;11.77;5.30;;;;;;;0.29;90.46;101081.78;5072019;28;20389;-89
2022/11/20 09:30:04;;;;;;;10.75;5.10;;;;;;;0.48;90.36;101067.91;5064102;28;20177;-89
2022/11/20 09:32:48;;;;;;;12.15;5.43;;;;;;;0.50;90.85;101062.81;5057477;28;20127;-95
2022/11/20 09:35:55;;;;;;;12.20;5.35;;;;;;;0.52;90.92;101054.38;5075435;28;20032;-91
2022/11/20 09:38:32;;;;;;;10.82;5.00;;;;;;;0.62;90.77;101060.63;4977696;28;20031;-88
2022/11/20 09:41:33;;;;;;;12.85;5.97;;;;;;;0.68;90.95;101055.69;4974639;28;20031;-88
2022/11/20 09:44:25;;;;;;;12.95;5.75;;;;;;;0.74;90.57;101055.88;4976833;28;20468;-89
2022/11/20 09:47:21;;;;;;;11.88;5.60;;;;;;;0.79;90.55;101039.81;5073954;28;20029;-91
2022/11/20 09:50:36;;;;;;;13.80;6.20;;;;;;;0.90;91.74;101043.53;5073476;28;20024;-92
2022/11/20 09:53:19;;;;;;;12.43;5.43;;;;;;;0.92;91.61;101019.75;5073335;28;20358;-92
2022/11/20 09:56:13;;;;;;;14.48;6.57;;;;;;;1.02;90.74;101033.63;5049722;28;20072;-92
2022/11/20 09:58:48;;;;;;;13.20;6.05;;;;;;;1.04;90.91;101019.19;5053890;28;20033;-92
2022/11/20 10:01:17;;;;;;;14.82;6.20;;;;;;;1.12;91.80;101027.06;5071606;28;20021;-91
2022/11/20 10:07:22;;;;;;;17.63;7.25;;;;;;;1.16;92.41;101018.66;5090093;22;20060;-91
2022/11/20 10:09:56;;;;;;;17.48;7.22;;;;;;;1.20;92.02;101025.56;4973188;28;20411;-91
2022/11/20 10:13:21;;;;;;;22.02;10.25;;;;;;;1.16;92.14;101003.34;5001615;22;20045;-91
2022/11/20 10:19:04;;;;;;;21.02;9.90;;;;;;;1.23;91.23;101005.22;5088438;22;20052;-92
2022/11/20 10:21:51;;;;;;;23.07;11.17;;;;;;;1.30;90.67;101002.78;5073148;28;20123;-92
2022/11/20 10:24:55;;;;;;;26.77;12.88;;;;;;;1.30;91.61;100985.78;5172369;22;20059;-92
2022/11/20 10:30:57;;;;;;;30.63;14.70;;;;;;;1.31;92.80;100959.38;5073524;28;20054;-93
2022/11/20 10:33:45;;;;;;;29.98;14.70;;;;;;;1.31;93.06;100946.59;5076072;28;20882;-93
2022/11/20 10:37:21;;;;;;;33.00;16.40;;;;;;;1.38;91.49;100938.22;5099183;22;20601;-90
2022/11/20 10:40:06;;;;;;;;;;;;;;;1.47;91.63;100935.03;5020596;28;20037;-92
2022/11/20 10:42:55;;;;;;;27.42;12.85;;;;;;;1.55;92.83;100935.22;5057077;28;19915;-92
2022/11/20 10:48:51;;;;;;;26.33;12.05;;;;;;;1.65;91.84;100926.03;5059911;28;20071;-91
2022/11/20 10:51:22;;;;;;;28.25;12.45;;;;;;;1.71;90.71;100928.75;5068774;28;20024;-92
2022/11/20 10:54:12;;;;;;;28.42;12.65;;;;;;;1.68;92.07;100918.44;5076322;28;20032;-93
2022/11/20 10:57:22;;;;;;;27.88;12.95;;;;;;;1.74;92.18;100912.59;5076237;28;20070;-93
2022/11/20 11:00:01;;;;;;;32.58;14.23;;;;;;;1.71;92.69;100898.06;5063579;28;20042;-93
2022/11/20 11:05:22;;;;;;;28.30;12.75;;;;;;;1.74;92.11;100893.00;5054437;28;20493;-91
2022/11/20 11:07:55;;;;;;;31.50;14.88;;;;;;;1.81;91.15;100896.53;5036353;28;20104;-90
2022/11/20 11:10:57;;;;;;;30.92;14.80;;;;;;;1.84;92.17;100894.06;5048654;28;20021;-90
2022/11/20 11:13:34;;;;;;;29.50;14.15;;;;;;;1.87;92.16;100890.69;5055874;28;20036;-91
2022/11/20 11:16:24;;;;;;;31.27;15.32;;;;;;;1.93;92.56;100890.84;5056205;28;20017;-91
2022/11/20 11:19:32;;;;;;;29.40;13.43;;;;;;;1.95;92.19;100890.03;5058645;28;20092;-91
2022/11/20 11:21:58;;;;;;;30.00;13.57;;;;;;;1.99;91.66;100891.81;5076393;28;20021;-91
2022/11/20 11:25:02;;;;;;;27.58;13.35;;;;;;;2.01;91.70;100891.84;5076133;28;20373;-91
2022/11/20 11:28:05;;;;;;;30.25;13.77;;;;;;;1.96;92.46;100886.63;5075947;28;20033;-91
2022/11/20 11:30:45;;;;;;;29.70;13.35;;;;;;;1.97;92.26;100882.41;5029084;22;20080;-91
2022/11/20 11:33:36;;;;;;;27.70;12.80;;;;;;;1.99;92.32;100891.81;5075401;28;20056;-91
2022/11/20 11:38:43;;;;;;;29.58;14.15;;;;;;;2.00;92.36;100878.19;5082720;22;20053;-91
2022/11/20 11:41:36;;;;;;;;;;;;;;;2.05;93.09;100885.09;5076037;28;20382;-91
2022/11/20 11:50:51;;;;;;;25.23;11.40;;;;;;;2.16;92.87;100865.69;5075435;28;20535;-92
2022/11/20 11:53:42;;;;;;;24.80;10.43;;;;;;;2.14;94.52;100858.00;5049787;22;20461;-93
2022/11/20 11:56:23;;;;;;;24.15;10.95;;;;;;;2.17;94.16;100852.06;5035453;28;20041;-91
2022/11/20 12:05:48;;;;;;;22.48;9.60;;;;;;;2.30;93.63;100814.75;4975128;28;20041;-92
2022/11/20 12:08:35;;;;;;;25.48;10.88;;;;;;;2.34;94.10;100802.84;4974866;28;20118;-92
2022/11/20 12:11:12;;;;;;;26.13;11.63;;;;;;;2.39;93.05;100802.09;4975257;28;20026;-93
2022/11/20 12:14:07;;;;;;;27.70;13.10;;;;;;;2.40;93.83;100797.84;5053506;23;20054;-93
2022/11/20 12:16:55;;;;;;;28.30;13.70;;;;;;;2.40;95.30;100783.34;5079755;22;20049;-93
2022/11/20 12:19:41;;;;;;;31.15;14.93;;;;;;;2.45;94.56;100774.03;5035374;28;20022;-93
2022/11/20 12:22:54;;;;;;;29.38;14.23;;;;;;;2.46;95.67;100759.53;5036592;28;20021;-93
2022/11/20 12:26:10;;;;;;;32.00;15.05;;;;;;;2.53;94.18;100753.66;5041237;28;20037;-91
2022/11/20 12:29:01;;;;;;;30.08;14.98;;;;;;;2.51;96.54;100744.22;5035616;28;20022;-92
2022/11/20 12:32:14;;;;;;;31.23;15.55;;;;;;;2.54;97.21;100747.69;5034643;28;20037;-92
2022/11/20 12:35:23;;;;;;;33.55;16.75;;;;;;;2.57;94.82;100752.00;4974157;28;20039;-93
2022/11/20 12:37:57;;;;;;;35.60;18.40;;;;;;;2.59;96.43;100742.66;4974006;28;20030;-93
2022/11/20 12:41:15;;;;;;;35.08;18.17;;;;;;;2.60;95.97;100742.66;4975477;28;20373;-93
2022/11/20 12:47:39;;;;;;;33.60;18.23;;;;;;;2.71;95.42;100732.59;5074863;28;20042;-94
2022/11/20 12:50:54;;;;;;;31.38;15.90;;;;;;;2.75;96.20;100723.25;5074561;28;20055;-93
2022/11/20 12:56:50;;;;;;;31.20;16.25;;;;;;;2.82;96.47;100696.84;5051088;22;20057;-95
2022/11/20 13:06:25;;;;;;;34.75;16.67;;;;;;;2.99;96.84;100665.47;5074961;28;20487;-93
2022/11/20 13:12:27;;;;;;;33.35;16.38;;;;;;;3.04;96.60;100668.97;5082862;28;20047;-92
2022/11/20 13:15:20;;;;;;;31.83;16.02;;;;;;;3.05;97.84;100653.59;5080984;28;20452;-89
2022/11/20 13:20:53;;;;;;;29.88;14.60;;;;;;;3.09;98.06;100636.53;5312971;22;20061;-95
2022/11/20 13:23:37;;;;;;;32.88;16.25;;;;;;;3.16;97.26;100642.59;5068704;28;20037;-93
2022/11/20 13:26:22;;;;;;;34.00;16.77;;;;;;;3.17;97.22;100631.50;5076272;28;20031;-94